map of LYKV home
LYKV - Airport
Location
City:  Kraljevo, Serbia
Name:Ladevci
Old (Alt.):Obrva
ICAO:LYKV

Details
Type:Airport (Aerodrome, Airfield)
Latitude:4349'06"N (43.818333)
Longitude:2035'14"E (20.587222)
Elevation:686 ft (209 m)
Variation:4.62E (WMM2015 magnetic declination)
0.11 annual change
Runways:1
Longest:7218 ft (2200 m), paved

Time
Time Zone:UTC+1 (DST+2)
Local Time:

Weather
METAR:LYKV 230930Z VRB01KT 7000 FEW050 M01/M03 Q1023 R14/////// NOSIG
TAF:LYKV 230500Z 2306/2406 VRB02KT 3000 BR SCT033 TX02/2312Z TNM06/2405Z
TEMPO 2306/2307 0800 FZFG
BECMG 2308/2310 6000 NSW
TEMPO 2310/2317 3000 -SN
BECMG 2323/2401 1500 BR
TEMPO 2403/2406 0600 FZFG

Related Locations
Nearby:
Farthest:CHT: 11590 mi / 18652 km
Waitangi [Tuuta], CIT, NZ

Find:

   beyond  
but within

Other Information
Maps:
NOTAMs:
Links:
Sources:

  
flag of Serbia   

Sectional Chart

Flight Planning
at skyvector.com

Satellite Image

Google Maps Satellite view

 

Copyright © 2004-2018 Karl L. Swartz. All rights reserved.
The Great Circle Mapper name and logo are trademarks of the Great Circle Mapper.
All other trademarks mentioned herein belong to their respective owners.
Please see credits for attibutions and further copyright information.

  Follow gcmap on Facebook Follow gcmap on Twitter Follow gcmap on Google+ GCmap on LinkedIn

hCard Microformat

Geo Microformat